Time,TemperatureF,DewpointF,PressureIn,WindDirection,WindDirectionDegrees,WindSpeedMPH,WindSpeedGustMPH,Humidity,HourlyPrecipIn,Conditions,Clouds,dailyrainin,SoftwareType,DateUTC
2013-11-02 00:06:00,48.2,24.4,30.05,WNW,293,0.0,0.4,39,0.00,,,0.00,WUHU216HW,2013-11-02 07:06:00,
2013-11-02 00:16:00,47.7,25.1,30.06,WNW,293,1.8,1.8,41,0.00,,,0.00,WUHU216HW,2013-11-02 07:16:00,
2013-11-02 00:26:00,47.9,25.2,30.06,WNW,293,0.0,2.0,41,0.00,,,0.00,WUHU216HW,2013-11-02 07:26:00,
2013-11-02 00:36:00,48.2,25.0,30.05,WNW,293,0.0,0.4,40,0.00,,,0.00,WUHU216HW,2013-11-02 07:36:00,
2013-11-02 00:46:00,48.1,25.9,30.05,WNW,293,0.7,2.2,42,0.00,,,0.00,WUHU216HW,2013-11-02 07:46:00,
2013-11-02 00:56:00,47.0,24.9,30.05,WNW,293,0.0,0.4,42,0.00,,,0.00,WUHU216HW,2013-11-02 07:56:00,
2013-11-02 01:06:00,46.3,24.8,30.05,WNW,293,0.0,1.3,43,0.00,,,0.00,WUHU216HW,2013-11-02 08:06:00,
2013-11-02 01:16:00,46.4,25.0,30.05,WNW,293,0.2,1.3,43,0.00,,,0.00,WUHU216HW,2013-11-02 08:16:00,
2013-11-02 01:26:00,46.4,24.5,30.05,WNW,293,0.0,0.4,42,0.00,,,0.00,WUHU216HW,2013-11-02 08:26:00,
2013-11-02 01:36:00,46.4,24.5,30.05,WNW,293,0.4,0.7,42,0.00,,,0.00,WUHU216HW,2013-11-02 08:36:00,
2013-11-02 01:46:00,46.4,24.5,30.04,WNW,293,0.0,1.1,42,0.00,,,0.00,WUHU216HW,2013-11-02 08:46:00,
2013-11-02 01:56:00,46.6,24.7,30.04,WNW,293,0.0,1.1,42,0.00,,,0.00,WUHU216HW,2013-11-02 08:56:00,
2013-11-02 02:06:00,47.2,25.1,30.04,WNW,293,0.4,1.1,42,0.00,,,0.00,WUHU216HW,2013-11-02 09:06:00,
2013-11-02 02:16:00,46.3,24.3,30.03,WNW,293,2.0,2.0,42,0.00,,,0.00,WUHU216HW,2013-11-02 09:16:00,
2013-11-02 02:26:00,48.8,24.9,30.03,WNW,293,1.3,2.5,39,0.00,,,0.00,WUHU216HW,2013-11-02 09:26:00,
2013-11-02 02:36:00,48.6,24.7,30.03,WNW,293,1.3,1.8,39,0.00,,,0.00,WUHU216HW,2013-11-02 09:36:00,
2013-11-02 02:46:00,48.4,23.9,30.03,WNW,293,1.1,1.8,38,0.00,,,0.00,WUHU216HW,2013-11-02 09:46:00,
2013-11-02 02:56:00,48.2,23.7,30.03,WNW,293,2.0,2.5,38,0.00,,,0.00,WUHU216HW,2013-11-02 09:56:00,
2013-11-02 03:06:00,48.8,24.1,30.02,WNW,293,1.8,1.8,38,0.00,,,0.00,WUHU216HW,2013-11-02 10:06:00,
2013-11-02 03:16:00,50.6,23.1,30.02,WNW,293,0.2,2.9,34,0.00,,,0.00,WUHU216HW,2013-11-02 10:16:00,
2013-11-02 03:27:00,52.0,23.0,30.02,East,90,1.3,2.5,32,0.00,,,0.00,WUHU216HW,2013-11-02 10:27:00,
2013-11-02 03:37:00,52.9,23.8,30.02,East,90,0.7,2.5,32,0.00,,,0.00,WUHU216HW,2013-11-02 10:37:00,
2013-11-02 03:47:00,52.2,23.8,30.02,East,90,0.2,1.6,33,0.00,,,0.00,WUHU216HW,2013-11-02 10:47:00,
2013-11-02 03:57:00,50.6,23.1,30.02,East,90,0.0,1.6,34,0.00,,,0.00,WUHU216HW,2013-11-02 10:57:00,
2013-11-02 04:07:00,50.0,24.0,30.02,East,90,0.7,1.1,36,0.00,,,0.00,WUHU216HW,2013-11-02 11:07:00,
2013-11-02 04:17:00,50.2,24.0,30.02,East,90,0.4,1.3,36,0.00,,,0.00,WUHU216HW,2013-11-02 11:17:00,
2013-11-02 04:27:00,49.1,23.8,30.02,East,90,0.2,0.4,37,0.00,,,0.00,WUHU216HW,2013-11-02 11:27:00,
2013-11-02 04:37:00,49.1,23.1,30.01,East,90,0.7,1.6,36,0.00,,,0.00,WUHU216HW,2013-11-02 11:37:00,
2013-11-02 04:47:00,49.9,22.4,30.01,East,90,1.1,1.6,34,0.00,,,0.00,WUHU216HW,2013-11-02 11:47:00,
2013-11-02 04:57:00,51.5,23.1,30.02,SE,135,2.5,2.5,33,0.00,,,0.00,WUHU216HW,2013-11-02 11:57:00,
2013-11-02 05:07:00,52.4,23.3,30.01,SE,135,2.2,3.4,32,0.00,,,0.00,WUHU216HW,2013-11-02 12:07:00,
2013-11-02 05:17:00,53.1,23.2,30.01,SE,135,0.9,1.8,31,0.00,,,0.00,WUHU216HW,2013-11-02 12:17:00,
2013-11-02 05:27:00,53.1,24.0,30.01,South,180,0.4,2.9,32,0.00,,,0.00,WUHU216HW,2013-11-02 12:27:00,
2013-11-02 05:37:00,52.7,23.0,30.01,South,180,1.3,1.8,31,0.00,,,0.00,WUHU216HW,2013-11-02 12:37:00,
2013-11-02 05:47:00,52.7,23.6,30.01,South,180,0.7,2.5,32,0.00,,,0.00,WUHU216HW,2013-11-02 12:47:00,
2013-11-02 05:57:00,51.8,23.5,30.02,South,180,0.0,1.1,33,0.00,,,0.00,WUHU216HW,2013-11-02 12:57:00,
2013-11-02 06:07:00,50.4,22.9,30.02,South,180,1.1,1.1,34,0.00,,,0.00,WUHU216HW,2013-11-02 13:07:00,
2013-11-02 06:17:00,51.1,23.5,30.02,South,180,1.1,1.8,34,0.00,,,0.00,WUHU216HW,2013-11-02 13:17:00,
2013-11-02 06:27:00,50.4,24.2,30.02,South,180,1.1,1.1,36,0.00,,,0.00,WUHU216HW,2013-11-02 13:27:00,
2013-11-02 06:37:00,49.7,23.6,30.01,South,180,0.7,1.1,36,0.00,,,0.00,WUHU216HW,2013-11-02 13:37:00,
2013-11-02 06:47:00,48.8,24.1,30.02,South,180,0.2,0.4,38,0.00,,,0.00,WUHU216HW,2013-11-02 13:47:00,
2013-11-02 06:57:00,47.7,23.9,30.02,South,180,0.4,1.1,39,0.00,,,0.00,WUHU216HW,2013-11-02 13:57:00,
2013-11-02 07:08:00,47.5,23.7,30.02,South,180,0.4,0.9,39,0.00,,,0.00,WUHU216HW,2013-11-02 14:08:00,
2013-11-02 07:18:00,50.0,25.9,30.02,South,180,1.6,1.6,39,0.00,,,0.00,WUHU216HW,2013-11-02 14:18:00,
2013-11-02 07:28:00,55.4,25.2,30.02,SE,135,2.0,2.5,31,0.00,,,0.00,WUHU216HW,2013-11-02 14:28:00,
2013-11-02 07:38:00,60.3,24.0,30.02,SE,135,1.6,2.5,25,0.00,,,0.00,WUHU216HW,2013-11-02 14:38:00,
2013-11-02 07:48:00,63.2,28.4,30.02,SE,135,1.1,1.8,27,0.00,,,0.00,WUHU216HW,2013-11-02 14:48:00,
2013-11-02 07:58:00,66.1,28.8,30.03,SE,135,1.6,1.8,25,0.00,,,0.00,WUHU216HW,2013-11-02 14:58:00,
2013-11-02 08:08:00,66.2,29.0,30.03,SE,135,1.8,2.0,25,0.00,,,0.00,WUHU216HW,2013-11-02 15:08:00,
2013-11-02 08:18:00,69.3,30.6,30.03,SE,135,0.0,2.5,24,0.00,,,0.00,WUHU216HW,2013-11-02 15:18:00,
2013-11-02 08:28:00,73.1,31.8,30.03,SE,135,2.5,2.5,22,0.00,,,0.00,WUHU216HW,2013-11-02 15:28:00,
2013-11-02 08:38:00,76.3,34.5,30.04,SE,135,0.4,1.8,22,0.00,,,0.00,WUHU216HW,2013-11-02 15:38:00,
2013-11-02 08:48:00,78.8,26.0,30.03,SE,135,1.8,1.8,15,0.00,,,0.00,WUHU216HW,2013-11-02 15:48:00,
2013-11-02 08:58:00,79.0,27.8,30.03,SE,135,1.6,2.7,16,0.00,,,0.00,WUHU216HW,2013-11-02 15:58:00,
2013-11-02 09:08:00,78.5,25.7,30.03,SE,135,3.4,3.4,15,0.00,,,0.00,WUHU216HW,2013-11-02 16:08:00,
2013-11-02 09:18:00,79.2,21.2,30.03,East,90,4.7,7.2,12,0.00,,,0.00,WUHU216HW,2013-11-02 16:18:00,
2013-11-02 09:28:00,80.1,22.1,30.03,ESE,113,2.2,6.3,12,0.00,,,0.00,WUHU216HW,2013-11-02 16:28:00,
2013-11-02 09:38:00,79.6,21.6,30.03,ENE,68,2.5,5.4,12,0.00,,,0.00,WUHU216HW,2013-11-02 16:38:00,
2013-11-02 09:48:00,79.7,20.1,30.03,East,90,3.6,6.7,11,0.00,,,0.00,WUHU216HW,2013-11-02 16:48:00,
2013-11-02 09:58:00,81.2,19.5,30.03,ESE,113,1.6,5.1,10,0.00,,,0.00,WUHU216HW,2013-11-02 16:58:00,
2013-11-02 10:08:00,81.9,20.1,30.03,ENE,68,4.7,6.9,10,0.00,,,0.00,WUHU216HW,2013-11-02 17:08:00,
2013-11-02 10:18:00,81.7,20.0,30.02,North,0,4.3,6.5,10,0.00,,,0.00,WUHU216HW,2013-11-02 17:18:00,
2013-11-02 10:28:00,82.4,22.2,30.02,East,90,2.5,6.3,11,0.00,,,0.00,WUHU216HW,2013-11-02 17:28:00,
2013-11-02 10:38:00,83.7,21.4,30.02,East,90,3.6,8.1,10,0.00,,,0.00,WUHU216HW,2013-11-02 17:38:00,
2013-11-02 10:48:00,83.2,21.1,30.02,ENE,68,4.3,7.2,10,0.00,,,0.00,WUHU216HW,2013-11-02 17:48:00,
2013-11-02 10:59:00,83.0,20.9,30.01,ENE,68,3.4,6.7,10,0.00,,,0.00,WUHU216HW,2013-11-02 17:59:00,
2013-11-02 11:09:00,83.2,21.1,30.01,ESE,113,6.7,6.9,8,0.00,,,0.00,WUHU216HW,2013-11-02 18:09:00,
2013-11-02 11:19:00,83.5,21.2,30.00,NE,45,2.0,6.0,10,0.00,,,0.00,WUHU216HW,2013-11-02 18:19:00,
2013-11-02 11:29:00,83.7,21.4,30.00,East,90,8.3,8.3,8,0.00,,,0.00,WUHU216HW,2013-11-02 18:29:00,
2013-11-02 11:39:00,83.7,21.4,29.99,SSE,158,3.4,7.4,8,0.00,,,0.00,WUHU216HW,2013-11-02 18:39:00,
2013-11-02 11:49:00,84.4,22.0,29.98,NNW,338,0.9,4.5,8,0.00,,,0.00,WUHU216HW,2013-11-02 18:49:00,
2013-11-02 11:59:00,84.4,22.0,29.98,SE,135,4.0,4.0,8,0.00,,,0.00,WUHU216HW,2013-11-02 18:59:00,
2013-11-02 12:09:00,85.0,22.3,29.98,ESE,113,3.4,6.3,8,0.00,,,0.00,WUHU216HW,2013-11-02 19:09:00,
2013-11-02 12:19:00,85.1,22.5,29.98,SSE,158,7.8,7.8,7,0.00,,,0.00,WUHU216HW,2013-11-02 19:19:00,
2013-11-02 12:29:00,85.3,22.7,29.97,SW,225,5.1,11.4,8,0.00,,,0.00,WUHU216HW,2013-11-02 19:29:00,
2013-11-02 12:39:00,85.3,22.7,29.97,WSW,248,2.5,6.5,8,0.00,,,0.00,WUHU216HW,2013-11-02 19:39:00,
2013-11-02 12:49:00,85.7,23.0,29.96,SSE,158,6.9,7.8,8,0.00,,,0.00,WUHU216HW,2013-11-02 19:49:00,
2013-11-02 12:59:00,85.9,23.0,29.96,SSE,158,8.1,8.1,8,0.00,,,0.00,WUHU216HW,2013-11-02 19:59:00,
2013-11-02 13:09:00,86.0,23.2,29.95,SW,225,6.7,6.7,8,0.00,,,0.00,WUHU216HW,2013-11-02 20:09:00,
2013-11-02 13:19:00,86.0,23.2,29.95,SW,225,1.6,6.9,8,0.00,,,0.00,WUHU216HW,2013-11-02 20:19:00,
2013-11-02 13:29:00,86.0,23.2,29.94,SW,225,4.9,7.2,8,0.00,,,0.00,WUHU216HW,2013-11-02 20:29:00,
2013-11-02 13:40:00,86.6,23.7,29.94,SSE,158,2.5,4.9,8,0.00,,,0.00,WUHU216HW,2013-11-02 20:40:00,
2013-11-02 13:50:00,86.6,23.7,29.93,SSW,203,2.2,4.3,8,0.00,,,0.00,WUHU216HW,2013-11-02 20:50:00,
2013-11-02 14:00:00,86.9,23.9,29.93,SW,225,5.6,6.5,8,0.00,,,0.00,WUHU216HW,2013-11-02 21:00:00,
2013-11-02 14:10:00,87.5,24.4,29.92,SSE,158,4.0,6.7,8,0.00,,,0.00,WUHU216HW,2013-11-02 21:10:00,
2013-11-02 14:20:00,87.1,24.1,29.92,SW,225,1.6,5.6,8,0.00,,,0.00,WUHU216HW,2013-11-02 21:20:00,
2013-11-02 14:30:00,88.4,25.0,29.92,SW,225,1.6,5.4,8,0.00,,,0.00,WUHU216HW,2013-11-02 21:30:00,
2013-11-02 14:40:00,87.1,24.1,29.91,SSE,158,4.0,4.3,8,0.00,,,0.00,WUHU216HW,2013-11-02 21:40:00,
2013-11-02 14:50:00,87.3,24.2,29.91,SE,135,2.0,7.6,8,0.00,,,0.00,WUHU216HW,2013-11-02 21:50:00,
2013-11-02 15:00:00,88.6,25.2,29.91,SW,225,2.5,4.7,8,0.00,,,0.00,WUHU216HW,2013-11-02 22:00:00,
2013-11-02 15:10:00,90.0,26.2,29.91,SSW,203,0.7,4.0,8,0.00,,,0.00,WUHU216HW,2013-11-02 22:10:00,
2013-11-02 15:20:00,90.2,26.4,29.90,SE,135,0.4,5.6,8,0.00,,,0.00,WUHU216HW,2013-11-02 22:20:00,
2013-11-02 15:30:00,89.3,25.7,29.90,SE,135,0.4,3.4,8,0.00,,,0.00,WUHU216HW,2013-11-02 22:30:00,
2013-11-02 15:40:00,88.0,24.8,29.90,SE,135,1.1,1.6,8,0.00,,,0.00,WUHU216HW,2013-11-02 22:40:00,
2013-11-02 15:50:00,87.5,24.4,29.90,SE,135,0.2,2.0,8,0.00,,,0.00,WUHU216HW,2013-11-02 22:50:00,
2013-11-02 16:00:00,87.3,24.2,29.90,SE,135,0.7,3.4,8,0.00,,,0.00,WUHU216HW,2013-11-02 23:00:00,
2013-11-02 16:10:00,87.3,24.2,29.90,SSW,203,0.2,5.1,8,0.00,,,0.00,WUHU216HW,2013-11-02 23:10:00,
2013-11-02 16:20:00,88.0,24.8,29.89,SSW,203,0.0,1.8,8,0.00,,,0.00,WUHU216HW,2013-11-02 23:20:00,
2013-11-02 16:30:00,86.8,23.8,29.89,SSE,158,1.6,3.8,8,0.00,,,0.00,WUHU216HW,2013-11-02 23:30:00,
2013-11-02 16:41:00,86.0,23.2,29.88,SSE,158,1.6,1.6,8,0.00,,,0.00,WUHU216HW,2013-11-02 23:41:00,
2013-11-02 16:51:00,85.1,22.5,29.89,SSE,158,0.2,2.2,10,0.00,,,0.00,WUHU216HW,2013-11-02 23:51:00,
2013-11-02 17:01:00,84.6,22.1,29.88,SSE,158,0.0,0.4,10,0.00,,,0.00,WUHU216HW,2013-11-03 00:01:00,
2013-11-02 17:11:00,83.3,22.9,29.88,SSE,158,0.0,0.0,11,0.00,,,0.00,WUHU216HW,2013-11-03 00:11:00,
2013-11-02 17:21:00,81.5,21.5,29.88,SSE,158,0.4,0.4,11,0.00,,,0.00,WUHU216HW,2013-11-03 00:21:00,
2013-11-02 17:31:00,79.7,21.7,29.88,SSE,158,0.0,0.9,12,0.00,,,0.00,WUHU216HW,2013-11-03 00:31:00,
2013-11-02 17:41:00,78.5,20.7,29.87,SSE,158,0.0,0.7,12,0.00,,,0.00,WUHU216HW,2013-11-03 00:41:00,
2013-11-02 17:51:00,76.7,21.1,29.88,SSE,158,0.0,0.4,13,0.00,,,0.00,WUHU216HW,2013-11-03 00:51:00,
2013-11-02 18:01:00,75.2,19.9,29.88,SSE,158,0.0,0.7,13,0.00,,,0.00,WUHU216HW,2013-11-03 01:01:00,
2013-11-02 18:11:00,74.5,19.4,29.88,SSE,158,2.9,2.9,13,0.00,,,0.00,WUHU216HW,2013-11-03 01:11:00,
2013-11-02 18:21:00,76.3,20.8,29.88,ENE,68,4.3,5.6,13,0.00,,,0.00,WUHU216HW,2013-11-03 01:21:00,
2013-11-02 18:31:00,76.3,19.1,29.88,ENE,68,1.6,5.4,12,0.00,,,0.00,WUHU216HW,2013-11-03 01:31:00,
2013-11-02 18:41:00,76.0,20.5,29.88,East,90,1.8,4.5,13,0.00,,,0.00,WUHU216HW,2013-11-03 01:41:00,
2013-11-02 18:51:00,75.6,20.2,29.89,East,90,0.4,3.8,13,0.00,,,0.00,WUHU216HW,2013-11-03 01:51:00,
2013-11-02 19:01:00,72.4,22.6,29.90,SW,225,1.8,4.5,16,0.00,,,0.00,WUHU216HW,2013-11-03 02:01:00,
2013-11-02 19:11:00,72.7,21.2,29.90,SW,225,0.2,2.5,15,0.00,,,0.00,WUHU216HW,2013-11-03 02:11:00,
2013-11-02 19:21:00,73.8,22.1,29.90,SW,225,2.7,2.7,15,0.00,,,0.00,WUHU216HW,2013-11-03 02:21:00,
2013-11-02 19:31:00,73.8,22.1,29.91,SW,225,0.4,3.4,15,0.00,,,0.00,WUHU216HW,2013-11-03 02:31:00,
2013-11-02 19:41:00,72.9,23.0,29.90,SW,225,0.7,1.1,16,0.00,,,0.00,WUHU216HW,2013-11-03 02:41:00,
2013-11-02 19:51:00,71.5,23.4,29.90,SW,225,0.0,1.1,17,0.00,,,0.00,WUHU216HW,2013-11-03 02:51:00,
2013-11-02 20:01:00,70.6,24.3,29.90,SW,225,1.8,1.8,18,0.00,,,0.00,WUHU216HW,2013-11-03 03:01:00,
2013-11-02 20:11:00,70.4,24.2,29.90,SE,135,4.0,4.0,18,0.00,,,0.00,WUHU216HW,2013-11-03 03:11:00,
2013-11-02 20:21:00,71.1,23.1,29.90,SE,135,1.3,3.4,17,0.00,,,0.00,WUHU216HW,2013-11-03 03:21:00,
2013-11-02 20:32:00,70.9,23.1,29.89,SE,135,0.4,1.8,17,0.00,,,0.00,WUHU216HW,2013-11-03 03:32:00,
2013-11-02 20:42:00,70.6,22.7,29.89,SE,135,0.9,1.8,17,0.00,,,0.00,WUHU216HW,2013-11-03 03:42:00,
2013-11-02 20:52:00,70.2,22.4,29.90,SE,135,0.4,1.1,17,0.00,,,0.00,WUHU216HW,2013-11-03 03:52:00,
2013-11-02 21:02:00,69.8,23.8,29.91,SE,135,1.1,1.1,18,0.00,,,0.00,WUHU216HW,2013-11-03 04:02:00,
2013-11-02 21:12:00,69.5,23.5,29.92,SE,135,0.0,0.4,18,0.00,,,0.00,WUHU216HW,2013-11-03 04:12:00,
2013-11-02 21:22:00,68.8,27.1,29.92,SE,135,0.7,1.1,21,0.00,,,0.00,WUHU216HW,2013-11-03 04:22:00,
2013-11-02 21:32:00,68.8,29.2,29.93,SE,135,1.1,1.1,23,0.00,,,0.00,WUHU216HW,2013-11-03 04:32:00,
2013-11-02 21:42:00,69.8,30.1,29.94,West,270,4.0,4.7,23,0.00,,,0.00,WUHU216HW,2013-11-03 04:42:00,
2013-11-02 21:52:00,71.5,26.6,29.96,WSW,248,2.0,6.3,19,0.00,,,0.00,WUHU216HW,2013-11-03 04:52:00,
2013-11-02 22:02:00,72.4,24.2,29.97,WSW,248,3.4,4.0,17,0.00,,,0.00,WUHU216HW,2013-11-03 05:02:00,
2013-11-02 22:12:00,72.9,27.9,29.98,WSW,248,1.1,4.7,19,0.00,,,0.00,WUHU216HW,2013-11-03 05:12:00,
2013-11-02 22:22:00,73.8,32.4,29.98,SW,225,4.0,6.3,22,0.00,,,0.00,WUHU216HW,2013-11-03 05:22:00,
2013-11-02 22:32:00,73.3,34.9,29.98,West,270,4.7,6.9,25,0.00,,,0.00,WUHU216HW,2013-11-03 05:32:00,
2013-11-02 22:42:00,71.6,41.7,29.98,West,270,12.1,12.1,34,0.00,,,0.00,WUHU216HW,2013-11-03 05:42:00,
2013-11-02 22:52:00,69.8,42.2,29.99,NW,315,5.4,8.9,37,0.00,,,0.00,WUHU216HW,2013-11-03 05:52:00,
2013-11-02 23:02:00,67.7,46.1,29.99,NNW,338,4.7,8.3,46,0.00,,,0.00,WUHU216HW,2013-11-03 06:02:00,
2013-11-02 23:12:00,64.6,48.4,29.99,NNW,338,5.6,8.1,56,0.01,,,0.01,WUHU216HW,2013-11-03 06:12:00,
2013-11-02 23:22:00,62.5,49.2,29.99,North,0,2.5,5.4,62,0.02,,,0.02,WUHU216HW,2013-11-03 06:22:00,
2013-11-02 23:32:00,61.7,48.6,29.98,North,0,1.6,4.0,62,0.03,,,0.03,WUHU216HW,2013-11-03 06:32:00,
2013-11-02 23:42:00,61.6,49.7,29.98,North,0,0.2,4.9,65,0.03,,,0.03,WUHU216HW,2013-11-03 06:42:00,
2013-11-02 23:53:00,61.4,51.2,29.98,SSE,158,4.5,4.5,69,0.03,,,0.03,WUHU216HW,2013-11-03 06:53:00,